Time;durP1;ratioP1;P1;durP2;ratioP2;P2;SDS_P1;SDS_P2;PMS_P1;PMS_P2;Temp;Humidity;BMP_temperature;BMP_pressure;BME280_temperature;BME280_humidity;BME280_pressure;Samples;Min_cycle;Max_cycle;Signal;HPM_P1;HPM_P2
2024/03/25 00:00:48;;;;;;;4.50;2.28;;;;;;;;;;5095245;28;20081;-59
2024/03/25 00:03:14;;;;;;;3.70;2.50;;;;;;;;;;5082921;28;20024;-59
2024/03/25 00:05:40;;;;;;;3.50;2.08;;;;;;;;;;5088358;28;20032;-58
2024/03/25 00:08:07;;;;;;;4.25;2.42;;;;;;;;;;5095086;28;20115;-58
2024/03/25 00:10:33;;;;;;;3.88;2.03;;;;;;;;;;5100163;28;20031;-58
2024/03/25 00:13:00;;;;;;;3.80;2.30;;;;;;;;;;5094226;28;20040;-58
2024/03/25 00:15:26;;;;;;;4.18;2.13;;;;;;;;;;5090533;28;20134;-58
2024/03/25 00:17:52;;;;;;;5.00;2.67;;;;;;;;;;5095047;28;20119;-57
2024/03/25 00:20:18;;;;;;;5.25;2.50;;;;;;;;;;5090362;28;20031;-58
2024/03/25 00:22:44;;;;;;;3.50;2.33;;;;;;;;;;5079543;28;20408;-58
2024/03/25 00:25:10;;;;;;;4.10;2.30;;;;;;;;;;5090988;28;20027;-59
2024/03/25 00:27:36;;;;;;;3.85;2.60;;;;;;;;;;5093099;28;20028;-58
2024/03/25 00:30:02;;;;;;;3.55;2.08;;;;;;;;;;5091026;28;20074;-58
2024/03/25 00:32:28;;;;;;;6.88;2.55;;;;;;;;;;5094263;28;20024;-58
2024/03/25 00:34:54;;;;;;;4.88;2.17;;;;;;;;;;5093965;28;20025;-60
2024/03/25 00:37:20;;;;;;;5.38;2.80;;;;;;;;;;5094525;28;20035;-58
2024/03/25 00:39:46;;;;;;;4.22;2.38;;;;;;;;;;5091756;28;20389;-58
2024/03/25 00:42:12;;;;;;;3.75;2.47;;;;;;;;;;5090662;28;20395;-58
2024/03/25 00:44:38;;;;;;;3.72;2.40;;;;;;;;;;5094011;28;20028;-58
2024/03/25 00:47:04;;;;;;;3.97;2.60;;;;;;;;;;5093062;28;20052;-58
2024/03/25 00:49:30;;;;;;;4.22;2.47;;;;;;;;;;5092198;28;20407;-59
2024/03/25 00:51:56;;;;;;;2.88;2.22;;;;;;;;;;5087681;28;20024;-58
2024/03/25 00:54:23;;;;;;;6.43;2.50;;;;;;;;;;5093491;28;20459;-57
2024/03/25 00:56:49;;;;;;;5.03;2.53;;;;;;;;;;5093668;28;20032;-59
2024/03/25 00:59:15;;;;;;;6.18;2.53;;;;;;;;;;5094131;28;20380;-58
2024/03/25 01:01:41;;;;;;;6.43;2.92;;;;;;;;;;5094171;28;20044;-58
2024/03/25 01:04:07;;;;;;;4.88;2.97;;;;;;;;;;5085166;28;20028;-56
2024/03/25 01:06:33;;;;;;;4.82;2.72;;;;;;;;;;5093017;28;20028;-59
2024/03/25 01:08:59;;;;;;;3.55;2.08;;;;;;;;;;5093490;28;20111;-59
2024/03/25 01:11:25;;;;;;;4.05;2.45;;;;;;;;;;5101892;28;20047;-58
2024/03/25 01:13:51;;;;;;;4.85;2.20;;;;;;;;;;5091468;28;20070;-57
2024/03/25 01:16:17;;;;;;;3.47;2.13;;;;;;;;;;5093518;28;20032;-58
2024/03/25 01:18:43;;;;;;;4.85;2.50;;;;;;;;;;5092176;28;20012;-58
2024/03/25 01:21:09;;;;;;;4.80;2.13;;;;;;;;;;5083731;28;20097;-59
2024/03/25 01:23:35;;;;;;;6.97;2.10;;;;;;;;;;5092795;28;20020;-58
2024/03/25 01:26:01;;;;;;;4.90;2.13;;;;;;;;;;5093163;28;20081;-58
2024/03/25 01:28:27;;;;;;;4.63;1.98;;;;;;;;;;5093494;28;20032;-58
2024/03/25 01:30:53;;;;;;;5.05;2.20;;;;;;;;;;5090801;28;20028;-59
2024/03/25 01:33:19;;;;;;;5.55;2.30;;;;;;;;;;5092823;28;20028;-59
2024/03/25 01:35:45;;;;;;;4.75;2.90;;;;;;;;;;5092616;28;20035;-58
2024/03/25 01:38:11;;;;;;;4.75;2.38;;;;;;;;;;5092131;28;20038;-56
2024/03/25 01:40:37;;;;;;;7.95;2.83;;;;;;;;;;5093319;28;20016;-59
2024/03/25 01:43:04;;;;;;;5.45;2.42;;;;;;;;;;5092861;28;20078;-58
2024/03/25 01:45:31;;;;;;;4.28;2.08;;;;;;;;;;5093126;28;20452;-58
2024/03/25 01:47:58;;;;;;;4.07;2.10;;;;;;;;;;5092653;28;20028;-58
2024/03/25 01:50:25;;;;;;;4.93;2.33;;;;;;;;;;5092754;28;20024;-58
2024/03/25 01:52:51;;;;;;;11.05;2.90;;;;;;;;;;5090520;28;20046;-58
2024/03/25 01:55:18;;;;;;;5.93;2.95;;;;;;;;;;5082399;28;20028;-58
2024/03/25 01:57:45;;;;;;;4.68;2.70;;;;;;;;;;5090632;28;20027;-59
2024/03/25 02:00:11;;;;;;;8.85;3.38;;;;;;;;;;5092580;28;20020;-59
2024/03/25 02:02:41;;;;;;;7.55;2.92;;;;;;;;;;5085199;28;20050;-59
2024/03/25 02:05:07;;;;;;;6.40;2.63;;;;;;;;;;5088077;28;20031;-57
2024/03/25 02:07:36;;;;;;;5.30;2.78;;;;;;;;;;5087298;28;20032;-58
2024/03/25 02:10:03;;;;;;;7.97;3.65;;;;;;;;;;5089801;28;20487;-57
2024/03/25 02:12:29;;;;;;;4.50;3.10;;;;;;;;;;5092585;28;20032;-58
2024/03/25 02:14:55;;;;;;;7.18;3.33;;;;;;;;;;5092386;28;20028;-59
2024/03/25 02:17:21;;;;;;;7.63;2.83;;;;;;;;;;5091396;28;20656;-59
2024/03/25 02:19:47;;;;;;;10.23;4.45;;;;;;;;;;5083849;28;20023;-58
2024/03/25 02:22:13;;;;;;;7.60;3.20;;;;;;;;;;5082848;28;20127;-58
2024/03/25 02:24:40;;;;;;;7.53;3.15;;;;;;;;;;5092580;28;20028;-58
2024/03/25 02:27:08;;;;;;;7.57;2.67;;;;;;;;;;5080157;28;20024;-58
2024/03/25 02:29:34;;;;;;;6.75;2.90;;;;;;;;;;5083247;28;20494;-57
2024/03/25 02:32:00;;;;;;;7.65;3.05;;;;;;;;;;5092058;28;20032;-58
2024/03/25 02:34:26;;;;;;;7.40;3.10;;;;;;;;;;5083178;28;20036;-59
2024/03/25 02:36:53;;;;;;;6.07;2.53;;;;;;;;;;5092147;28;20040;-58
2024/03/25 02:39:19;;;;;;;5.93;2.60;;;;;;;;;;5092376;28;20027;-56
2024/03/25 02:41:46;;;;;;;7.13;2.22;;;;;;;;;;5089629;28;20518;-58
2024/03/25 02:44:12;;;;;;;5.60;2.35;;;;;;;;;;5091995;28;20085;-57
2024/03/25 02:46:40;;;;;;;3.45;2.13;;;;;;;;;;5092092;28;20039;-58
2024/03/25 02:49:06;;;;;;;6.25;2.70;;;;;;;;;;5091981;28;20024;-57
2024/03/25 02:51:32;;;;;;;6.15;2.17;;;;;;;;;;5091757;28;20047;-58
2024/03/25 02:53:58;;;;;;;6.07;2.20;;;;;;;;;;5077409;28;20032;-57
2024/03/25 02:56:24;;;;;;;4.53;2.08;;;;;;;;;;5091842;28;20028;-58
2024/03/25 02:58:50;;;;;;;4.88;1.73;;;;;;;;;;5090791;28;20020;-57
2024/03/25 03:01:17;;;;;;;4.13;1.90;;;;;;;;;;5091823;28;20028;-58
2024/03/25 03:03:43;;;;;;;4.13;1.80;;;;;;;;;;5087376;28;20059;-58
2024/03/25 03:06:09;;;;;;;3.70;1.50;;;;;;;;;;5090105;28;20487;-58
2024/03/25 03:08:35;;;;;;;8.52;1.90;;;;;;;;;;5073736;28;20043;-58
2024/03/25 03:11:01;;;;;;;6.10;1.85;;;;;;;;;;5092313;28;20028;-58
2024/03/25 03:13:27;;;;;;;8.43;2.00;;;;;;;;;;5091329;28;20085;-57
2024/03/25 03:15:53;;;;;;;3.33;1.75;;;;;;;;;;5083769;28;20028;-57
2024/03/25 03:18:19;;;;;;;5.03;1.70;;;;;;;;;;5088979;28;20027;-56
2024/03/25 03:20:45;;;;;;;5.15;1.75;;;;;;;;;;5076614;28;20900;-56
2024/03/25 03:23:11;;;;;;;6.72;2.08;;;;;;;;;;5089513;28;20226;-58
2024/03/25 03:25:37;;;;;;;2.78;1.45;;;;;;;;;;5092027;28;20476;-57
2024/03/25 03:28:03;;;;;;;4.88;1.77;;;;;;;;;;5091643;28;20039;-59
2024/03/25 03:30:29;;;;;;;3.55;1.55;;;;;;;;;;5095201;28;20073;-58
2024/03/25 03:32:55;;;;;;;2.72;1.63;;;;;;;;;;5095353;28;20027;-58
2024/03/25 03:35:21;;;;;;;5.07;1.75;;;;;;;;;;5087504;28;20020;-59
2024/03/25 03:37:47;;;;;;;2.35;1.40;;;;;;;;;;5093122;28;20028;-58
2024/03/25 03:40:14;;;;;;;3.17;1.50;;;;;;;;;;5095465;28;20016;-58
2024/03/25 03:42:40;;;;;;;2.20;1.50;;;;;;;;;;5094642;28;20039;-58
2024/03/25 03:45:06;;;;;;;3.17;1.60;;;;;;;;;;5092089;28;20024;-59
2024/03/25 03:47:32;;;;;;;6.72;1.75;;;;;;;;;;5095627;28;20514;-55
2024/03/25 03:49:59;;;;;;;8.30;1.98;;;;;;;;;;5094218;28;20024;-59
2024/03/25 03:52:25;;;;;;;4.93;1.85;;;;;;;;;;5094531;28;20028;-59
2024/03/25 03:54:51;;;;;;;4.65;1.77;;;;;;;;;;5092597;28;20476;-59
2024/03/25 03:57:17;;;;;;;3.20;1.90;;;;;;;;;;5092922;28;20024;-59
2024/03/25 03:59:43;;;;;;;5.05;2.00;;;;;;;;;;5093661;28;20036;-59
2024/03/25 04:02:09;;;;;;;4.32;1.60;;;;;;;;;;5089769;28;20039;-59
2024/03/25 04:04:35;;;;;;;5.00;1.92;;;;;;;;;;5094606;28;20028;-59
2024/03/25 04:07:02;;;;;;;4.47;1.80;;;;;;;;;;5088466;28;20069;-59
2024/03/25 04:09:31;;;;;;;3.05;1.33;;;;;;;;;;5094905;28;20471;-59
2024/03/25 04:11:57;;;;;;;3.30;1.55;;;;;;;;;;5088618;28;20376;-59
2024/03/25 04:14:22;;;;;;;4.47;2.00;;;;;;;;;;5091719;28;20032;-58
2024/03/25 04:16:48;;;;;;;6.47;1.98;;;;;;;;;;5094581;28;20031;-59
2024/03/25 04:19:14;;;;;;;3.78;1.55;;;;;;;;;;5084005;28;20062;-56
2024/03/25 04:21:40;;;;;;;5.47;2.05;;;;;;;;;;5090395;28;20068;-59
2024/03/25 04:24:06;;;;;;;4.88;1.90;;;;;;;;;;5086421;28;20028;-58
2024/03/25 04:26:33;;;;;;;5.53;2.03;;;;;;;;;;5094654;28;20138;-58
2024/03/25 04:28:59;;;;;;;5.38;2.10;;;;;;;;;;5094861;28;20491;-59
2024/03/25 04:31:25;;;;;;;3.67;2.22;;;;;;;;;;5094588;28;20028;-59
2024/03/25 04:33:51;;;;;;;7.47;2.13;;;;;;;;;;5093699;28;20043;-59
2024/03/25 04:36:17;;;;;;;7.93;1.98;;;;;;;;;;5094415;28;20028;-59
2024/03/25 04:38:43;;;;;;;5.55;2.38;;;;;;;;;;5086429;28;20025;-58
2024/03/25 04:41:09;;;;;;;6.18;2.35;;;;;;;;;;5093177;28;20032;-59
2024/03/25 04:43:35;;;;;;;3.90;2.17;;;;;;;;;;5094080;28;20483;-58
2024/03/25 04:46:01;;;;;;;3.75;2.25;;;;;;;;;;5094402;28;20028;-59
2024/03/25 04:48:27;;;;;;;6.13;2.30;;;;;;;;;;5094222;28;20031;-59
2024/03/25 04:50:53;;;;;;;4.10;1.98;;;;;;;;;;5093656;28;20032;-59
2024/03/25 04:53:19;;;;;;;4.53;2.20;;;;;;;;;;5093669;28;20028;-58
2024/03/25 04:55:45;;;;;;;7.07;2.38;;;;;;;;;;5086701;28;20043;-59
2024/03/25 04:58:11;;;;;;;5.70;2.90;;;;;;;;;;5094342;28;20024;-55
2024/03/25 05:00:37;;;;;;;6.65;2.85;;;;;;;;;;5094057;28;20031;-55
2024/03/25 05:03:04;;;;;;;6.90;2.90;;;;;;;;;;5083262;28;20080;-55
2024/03/25 05:05:30;;;;;;;6.15;2.63;;;;;;;;;;5087567;28;20031;-55
2024/03/25 05:07:56;;;;;;;6.47;2.60;;;;;;;;;;5089140;28;20085;-56
2024/03/25 05:10:22;;;;;;;6.80;2.65;;;;;;;;;;5098541;28;20420;-56
2024/03/25 05:12:49;;;;;;;8.30;2.78;;;;;;;;;;5091480;28;20040;-55
2024/03/25 05:15:15;;;;;;;12.70;2.83;;;;;;;;;;5089558;28;20115;-54
2024/03/25 05:17:41;;;;;;;5.38;2.42;;;;;;;;;;5092682;28;20054;-56
2024/03/25 05:20:07;;;;;;;4.75;2.83;;;;;;;;;;5088860;28;20093;-55
2024/03/25 05:22:33;;;;;;;7.47;2.80;;;;;;;;;;5089576;28;20040;-56
2024/03/25 05:24:59;;;;;;;9.85;3.03;;;;;;;;;;5085335;28;20058;-55
2024/03/25 05:27:25;;;;;;;7.60;2.65;;;;;;;;;;5086613;28;20031;-54
2024/03/25 05:29:51;;;;;;;9.07;3.15;;;;;;;;;;5090003;28;20031;-55
2024/03/25 05:32:17;;;;;;;12.48;2.70;;;;;;;;;;5093042;28;20085;-56
2024/03/25 05:34:43;;;;;;;8.13;2.80;;;;;;;;;;5090086;28;20046;-56
2024/03/25 05:37:09;;;;;;;7.50;2.67;;;;;;;;;;5087963;28;20025;-56
2024/03/25 05:39:35;;;;;;;6.18;2.42;;;;;;;;;;5091055;28;20028;-55
2024/03/25 05:42:01;;;;;;;11.25;3.00;;;;;;;;;;5090059;28;20066;-55
2024/03/25 05:44:27;;;;;;;7.30;3.10;;;;;;;;;;5089769;28;20027;-55
2024/03/25 05:46:53;;;;;;;7.43;2.83;;;;;;;;;;5084189;28;20024;-56
2024/03/25 05:49:19;;;;;;;5.30;2.33;;;;;;;;;;5091305;28;20380;-55
2024/03/25 05:51:45;;;;;;;9.68;2.80;;;;;;;;;;5090184;28;20028;-55
2024/03/25 05:54:11;;;;;;;5.30;3.22;;;;;;;;;;5091583;28;20036;-55
2024/03/25 05:56:37;;;;;;;8.88;3.15;;;;;;;;;;5091729;28;20035;-56
2024/03/25 05:59:03;;;;;;;6.85;2.45;;;;;;;;;;5079527;28;20070;-55
2024/03/25 06:01:29;;;;;;;14.48;2.63;;;;;;;;;;5091889;28;20020;-55
2024/03/25 06:03:55;;;;;;;7.82;3.03;;;;;;;;;;5085609;28;20028;-56
2024/03/25 06:06:21;;;;;;;7.00;2.97;;;;;;;;;;5091416;28;20756;-55
2024/03/25 06:08:47;;;;;;;8.20;3.17;;;;;;;;;;5091513;28;20110;-54
2024/03/25 06:11:13;;;;;;;10.98;2.58;;;;;;;;;;5089224;28;20028;-55
2024/03/25 06:13:39;;;;;;;9.65;2.83;;;;;;;;;;5084317;28;20365;-56
2024/03/25 06:16:05;;;;;;;7.05;2.90;;;;;;;;;;5091505;28;20039;-55
2024/03/25 06:18:31;;;;;;;6.13;2.42;;;;;;;;;;5091580;28;20028;-55
2024/03/25 06:20:57;;;;;;;6.93;2.60;;;;;;;;;;5085177;28;20059;-55
2024/03/25 06:23:24;;;;;;;9.65;2.50;;;;;;;;;;5088793;28;20104;-55
2024/03/25 06:25:53;;;;;;;11.82;2.83;;;;;;;;;;5091173;28;20485;-55
2024/03/25 06:28:19;;;;;;;7.45;2.50;;;;;;;;;;5091180;28;20576;-55
2024/03/25 06:36:16;;;;;;;5.97;2.83;;;;;;;;;;5088098;28;20089;-55
2024/03/25 06:38:42;;;;;;;4.78;2.40;;;;;;;;;;5087241;28;20464;-55
2024/03/25 06:41:08;;;;;;;8.27;2.38;;;;;;;;;;5087632;28;20077;-55
2024/03/25 06:43:34;;;;;;;12.10;2.90;;;;;;;;;;5090692;28;20020;-55
2024/03/25 06:46:00;;;;;;;5.93;2.65;;;;;;;;;;5089096;28;20115;-55
2024/03/25 06:48:26;;;;;;;3.85;2.42;;;;;;;;;;5084132;28;20028;-54
2024/03/25 06:50:53;;;;;;;8.65;2.55;;;;;;;;;;5090089;28;20055;-55
2024/03/25 06:53:19;;;;;;;4.28;2.30;;;;;;;;;;5090852;28;20126;-56
2024/03/25 06:55:51;;;;;;;9.75;2.17;;;;;;;;;;5082078;28;20028;-56
2024/03/25 06:58:17;;;;;;;7.90;2.87;;;;;;;;;;5081463;28;20028;-56
2024/03/25 07:00:43;;;;;;;8.55;3.05;;;;;;;;;;5090469;28;20258;-56
2024/03/25 07:03:09;;;;;;;5.93;2.70;;;;;;;;;;5089914;28;20122;-55
2024/03/25 07:05:35;;;;;;;9.02;3.03;;;;;;;;;;5091741;28;20024;-55
2024/03/25 07:08:01;;;;;;;5.97;2.88;;;;;;;;;;5094963;28;20085;-55
2024/03/25 07:10:27;;;;;;;6.93;2.58;;;;;;;;;;5092804;28;20048;-55
2024/03/25 07:12:53;;;;;;;8.30;2.35;;;;;;;;;;5092275;28;20036;-54
2024/03/25 07:15:19;;;;;;;5.22;2.97;;;;;;;;;;5094180;28;20086;-55
2024/03/25 07:17:45;;;;;;;8.93;3.60;;;;;;;;;;5094648;28;20028;-59
2024/03/25 07:20:11;;;;;;;5.82;2.55;;;;;;;;;;5091423;28;20024;-59
2024/03/25 07:22:37;;;;;;;6.05;3.33;;;;;;;;;;5093548;28;20124;-59
2024/03/25 07:25:04;;;;;;;9.90;3.10;;;;;;;;;;5093528;28;20581;-59
2024/03/25 07:27:29;;;;;;;6.00;2.50;;;;;;;;;;5092533;28;20059;-59
2024/03/25 07:29:55;;;;;;;6.68;2.65;;;;;;;;;;5086330;28;20384;-59
2024/03/25 07:32:22;;;;;;;7.18;3.13;;;;;;;;;;5093756;28;20391;-59
2024/03/25 07:34:48;;;;;;;6.10;2.50;;;;;;;;;;5094081;28;20057;-57
2024/03/25 07:37:14;;;;;;;6.30;2.78;;;;;;;;;;5087390;28;20024;-59
2024/03/25 07:39:40;;;;;;;11.55;2.95;;;;;;;;;;5093992;28;20012;-59
2024/03/25 07:42:06;;;;;;;10.05;2.95;;;;;;;;;;5090945;28;20035;-58
2024/03/25 07:44:32;;;;;;;6.90;2.58;;;;;;;;;;5094544;28;20130;-58
2024/03/25 07:46:58;;;;;;;12.00;2.63;;;;;;;;;;5092429;28;20495;-58
2024/03/25 07:49:24;;;;;;;6.55;2.38;;;;;;;;;;5082246;28;20099;-58
2024/03/25 07:51:50;;;;;;;5.68;3.13;;;;;;;;;;5091309;28;20028;-58
2024/03/25 07:54:16;;;;;;;7.72;2.65;;;;;;;;;;5093978;28;20468;-58
2024/03/25 07:56:42;;;;;;;7.00;2.70;;;;;;;;;;5093632;28;20132;-57
2024/03/25 07:59:08;;;;;;;8.05;2.80;;;;;;;;;;5094114;28;20467;-58
2024/03/25 08:01:34;;;;;;;5.95;2.67;;;;;;;;;;5092942;28;20024;-58
2024/03/25 08:04:02;;;;;;;8.07;2.60;;;;;;;;;;5087116;28;20035;-58
2024/03/25 08:06:28;;;;;;;4.57;2.42;;;;;;;;;;5086792;28;20020;-59
2024/03/25 08:08:54;;;;;;;9.32;2.92;;;;;;;;;;5091546;28;20040;-59
2024/03/25 08:11:20;;;;;;;5.13;2.70;;;;;;;;;;5090688;28;20039;-58
2024/03/25 08:13:46;;;;;;;7.68;2.47;;;;;;;;;;5093265;28;20059;-59
2024/03/25 08:16:12;;;;;;;4.55;2.58;;;;;;;;;;5092465;28;20044;-58
2024/03/25 08:18:38;;;;;;;5.45;2.45;;;;;;;;;;5093551;28;20077;-58
2024/03/25 08:21:04;;;;;;;5.05;2.60;;;;;;;;;;5086347;28;20036;-59
2024/03/25 08:23:30;;;;;;;6.15;2.75;;;;;;;;;;5093523;28;20042;-59
2024/03/25 08:25:56;;;;;;;6.40;2.38;;;;;;;;;;5088423;28;20491;-59
2024/03/25 08:28:22;;;;;;;6.55;2.30;;;;;;;;;;5093798;28;20471;-55
2024/03/25 08:30:48;;;;;;;6.35;2.35;;;;;;;;;;5093398;28;20442;-54
2024/03/25 08:33:14;;;;;;;7.68;2.33;;;;;;;;;;5086449;28;20090;-55
2024/03/25 08:35:40;;;;;;;4.35;2.28;;;;;;;;;;5092308;28;20128;-55
2024/03/25 08:38:06;;;;;;;9.27;2.83;;;;;;;;;;5081336;28;20036;-56
2024/03/25 08:40:32;;;;;;;7.95;2.30;;;;;;;;;;5089782;28;20043;-56
2024/03/25 08:42:58;;;;;;;5.00;2.55;;;;;;;;;;5093568;28;20032;-55
2024/03/25 08:45:24;;;;;;;5.43;2.40;;;;;;;;;;5086033;28;20024;-56
2024/03/25 08:47:49;;;;;;;4.80;2.00;;;;;;;;;;5089632;28;20063;-55
2024/03/25 08:50:15;;;;;;;5.53;2.20;;;;;;;;;;5086230;28;20463;-56
2024/03/25 08:52:42;;;;;;;6.18;2.00;;;;;;;;;;5090748;28;20516;-54
2024/03/25 08:55:08;;;;;;;3.15;1.98;;;;;;;;;;5092518;28;20160;-56
2024/03/25 08:57:34;;;;;;;5.18;2.42;;;;;;;;;;5092879;28;20027;-55
2024/03/25 09:00:00;;;;;;;6.93;2.33;;;;;;;;;;5092760;28;20020;-56
2024/03/25 09:02:26;;;;;;;5.28;2.70;;;;;;;;;;5086615;28;20035;-55
2024/03/25 09:04:52;;;;;;;5.35;2.47;;;;;;;;;;5084966;28;20035;-56
2024/03/25 09:07:18;;;;;;;6.20;2.28;;;;;;;;;;5088958;28;20012;-55
2024/03/25 09:12:29;;;;;;;9.82;4.63;;;;;;;;;;5090251;28;20027;-55
2024/03/25 09:14:55;;;;;;;6.13;2.53;;;;;;;;;;5086588;28;20028;-54
2024/03/25 09:17:23;;;;;;;11.45;5.50;;;;;;;;;;5087662;28;20023;-55
2024/03/25 09:19:49;;;;;;;7.25;3.78;;;;;;;;;;5085498;28;20070;-56
2024/03/25 09:22:15;;;;;;;7.57;2.17;;;;;;;;;;5087693;28;20048;-55
2024/03/25 09:24:40;;;;;;;10.13;2.63;;;;;;;;;;5088399;28;20097;-55
2024/03/25 09:27:06;;;;;;;11.52;5.78;;;;;;;;;;5088892;28;20024;-56
2024/03/25 09:29:32;;;;;;;6.75;2.53;;;;;;;;;;5089725;28;20027;-55
2024/03/25 09:31:58;;;;;;;6.43;2.28;;;;;;;;;;5089093;28;20115;-56
2024/03/25 09:34:24;;;;;;;4.50;1.67;;;;;;;;;;5087281;28;20024;-55
2024/03/25 09:36:51;;;;;;;5.57;1.90;;;;;;;;;;5085073;28;20051;-56
2024/03/25 09:39:17;;;;;;;3.10;1.90;;;;;;;;;;5090912;28;20547;-59
2024/03/25 09:41:43;;;;;;;3.75;1.52;;;;;;;;;;5087709;28;20417;-59
2024/03/25 09:44:10;;;;;;;6.78;1.92;;;;;;;;;;5086831;28;20450;-58
2024/03/25 09:46:36;;;;;;;1.88;1.35;;;;;;;;;;5088213;28;20390;-59
2024/03/25 09:49:05;;;;;;;2.65;1.55;;;;;;;;;;5088014;28;20097;-55
2024/03/25 09:51:31;;;;;;;4.60;1.75;;;;;;;;;;5087797;28;20032;-56
2024/03/25 09:53:57;;;;;;;4.75;1.60;;;;;;;;;;5089396;28;20028;-56
2024/03/25 09:56:23;;;;;;;4.97;1.25;;;;;;;;;;5089029;28;20070;-56
2024/03/25 09:58:49;;;;;;;2.67;1.30;;;;;;;;;;5085102;28;20456;-56
2024/03/25 10:01:15;;;;;;;2.20;1.35;;;;;;;;;;5089685;28;20028;-55
2024/03/25 10:03:41;;;;;;;3.63;1.13;;;;;;;;;;5087546;28;20020;-56
2024/03/25 10:06:09;;;;;;;3.78;1.33;;;;;;;;;;5085239;28;20086;-55
2024/03/25 10:08:35;;;;;;;4.25;1.38;;;;;;;;;;5091190;28;20031;-54
2024/03/25 10:11:02;;;;;;;2.40;1.30;;;;;;;;;;5085254;28;20410;-55
2024/03/25 10:13:28;;;;;;;5.13;1.70;;;;;;;;;;5078060;28;20025;-55
2024/03/25 10:15:55;;;;;;;3.05;1.67;;;;;;;;;;5087708;28;20035;-56
2024/03/25 10:18:21;;;;;;;2.00;1.30;;;;;;;;;;5086212;28;20032;-55
2024/03/25 10:20:55;;;;;;;5.53;1.50;;;;;;;;;;5086551;28;20050;-55
2024/03/25 10:23:21;;;;;;;3.75;1.02;;;;;;;;;;5090223;28;20069;-55
2024/03/25 10:25:48;;;;;;;1.60;1.00;;;;;;;;;;5088122;28;20032;-54
2024/03/25 10:28:15;;;;;;;3.45;1.17;;;;;;;;;;5076798;28;20102;-54
2024/03/25 10:30:42;;;;;;;3.00;1.10;;;;;;;;;;5089233;28;20475;-55
2024/03/25 10:33:08;;;;;;;4.38;1.17;;;;;;;;;;5088785;28;20028;-55
2024/03/25 10:35:38;;;;;;;4.15;1.30;;;;;;;;;;5089007;28;20100;-56
2024/03/25 10:38:10;;;;;;;6.32;1.42;;;;;;;;;;5090412;28;20047;-56
2024/03/25 10:40:37;;;;;;;2.72;1.30;;;;;;;;;;5085226;28;20326;-55
2024/03/25 10:43:06;;;;;;;2.15;1.30;;;;;;;;;;5086517;28;20494;-56
2024/03/25 10:45:33;;;;;;;2.85;1.20;;;;;;;;;;5090482;28;20454;-54
2024/03/25 10:48:01;;;;;;;5.63;1.98;;;;;;;;;;5088405;28;20150;-55
2024/03/25 10:50:29;;;;;;;2.03;1.10;;;;;;;;;;5082327;28;20107;-55
2024/03/25 10:52:56;;;;;;;2.53;1.40;;;;;;;;;;5090285;28;20035;-55
2024/03/25 10:55:22;;;;;;;3.35;1.13;;;;;;;;;;5088719;28;20077;-56
2024/03/25 10:57:49;;;;;;;5.93;1.52;;;;;;;;;;5090985;28;20024;-58
2024/03/25 11:00:16;;;;;;;3.80;1.27;;;;;;;;;;5090227;28;20413;-59
2024/03/25 11:02:43;;;;;;;3.83;1.60;;;;;;;;;;5090231;28;20600;-57
2024/03/25 11:05:10;;;;;;;2.20;1.00;;;;;;;;;;5077342;28;20033;-58
2024/03/25 11:07:38;;;;;;;4.28;1.55;;;;;;;;;;5087337;28;20115;-56
2024/03/25 11:10:05;;;;;;;4.03;1.40;;;;;;;;;;5090924;28;20028;-59
2024/03/25 11:12:38;;;;;;;5.93;1.40;;;;;;;;;;5087685;28;20027;-57
2024/03/25 11:15:07;;;;;;;3.63;1.33;;;;;;;;;;5085840;28;20074;-59
2024/03/25 11:17:33;;;;;;;1.92;0.93;;;;;;;;;;5085328;28;20484;-58
2024/03/25 11:20:08;;;;;;;3.53;1.10;;;;;;;;;;5086717;28;20028;-59
2024/03/25 11:22:34;;;;;;;4.45;0.95;;;;;;;;;;5083097;28;20042;-58
2024/03/25 11:25:07;;;;;;;7.25;1.05;;;;;;;;;;5084721;28;20028;-58
2024/03/25 11:27:34;;;;;;;2.50;0.55;;;;;;;;;;5090428;28;20032;-57
2024/03/25 11:30:00;;;;;;;2.33;1.00;;;;;;;;;;5090641;28;20032;-59
2024/03/25 11:32:27;;;;;;;3.95;0.90;;;;;;;;;;5089559;28;20814;-57
2024/03/25 11:34:53;;;;;;;4.55;1.05;;;;;;;;;;5089829;28;20036;-59
2024/03/25 11:37:19;;;;;;;2.38;0.90;;;;;;;;;;5089019;28;20071;-58
2024/03/25 11:39:45;;;;;;;1.92;0.70;;;;;;;;;;5082350;28;20073;-58
2024/03/25 11:42:13;;;;;;;2.95;1.02;;;;;;;;;;5089174;28;20099;-59
2024/03/25 11:44:41;;;;;;;2.55;1.20;;;;;;;;;;5093695;28;20425;-59
2024/03/25 11:47:09;;;;;;;7.93;1.10;;;;;;;;;;5089062;28;20114;-59
2024/03/25 11:49:37;;;;;;;1.80;0.70;;;;;;;;;;5075841;28;20640;-58
2024/03/25 11:52:03;;;;;;;3.50;1.00;;;;;;;;;;5082263;28;20472;-57
2024/03/25 11:54:29;;;;;;;8.10;1.25;;;;;;;;;;5084915;28;20162;-59
2024/03/25 11:56:55;;;;;;;5.13;1.02;;;;;;;;;;5087706;28;20036;-57
2024/03/25 11:59:22;;;;;;;5.57;0.77;;;;;;;;;;5085025;28;20569;-57
2024/03/25 12:01:48;;;;;;;1.02;0.70;;;;;;;;;;5088267;28;20505;-55
2024/03/25 12:04:17;;;;;;;2.15;0.80;;;;;;;;;;5082031;28;20008;-54
2024/03/25 12:06:43;;;;;;;2.65;0.82;;;;;;;;;;5085413;28;20092;-54
2024/03/25 12:11:56;;;;;;;1.25;0.50;;;;;;;;;;5093625;28;20044;-57
2024/03/25 12:14:22;;;;;;;0.82;0.30;;;;;;;;;;5092473;28;20383;-56
2024/03/25 12:16:48;;;;;;;2.17;0.40;;;;;;;;;;5093984;28;20127;-56
2024/03/25 12:19:15;;;;;;;1.77;0.75;;;;;;;;;;5091461;28;20024;-56
2024/03/25 12:21:41;;;;;;;1.10;0.30;;;;;;;;;;5088414;28;20044;-56
2024/03/25 12:24:08;;;;;;;0.88;0.45;;;;;;;;;;5088546;28;20482;-57
2024/03/25 12:26:35;;;;;;;0.70;0.40;;;;;;;;;;5093726;28;20028;-56
2024/03/25 12:29:03;;;;;;;0.80;0.43;;;;;;;;;;5093259;28;20450;-56
2024/03/25 12:31:29;;;;;;;1.20;0.57;;;;;;;;;;5092888;28;20032;-56
2024/03/25 12:33:55;;;;;;;2.05;0.60;;;;;;;;;;5088516;28;20043;-56
2024/03/25 12:36:22;;;;;;;1.17;0.65;;;;;;;;;;5085335;28;20120;-55
2024/03/25 12:38:54;;;;;;;1.75;0.40;;;;;;;;;;5088677;28;20410;-56
2024/03/25 12:41:22;;;;;;;0.93;0.40;;;;;;;;;;5093373;28;20100;-56
2024/03/25 12:43:50;;;;;;;3.00;0.60;;;;;;;;;;5092413;28;20028;-56
2024/03/25 12:46:16;;;;;;;2.63;0.57;;;;;;;;;;5088736;28;20032;-56
2024/03/25 12:48:42;;;;;;;0.77;0.43;;;;;;;;;;5089025;28;20039;-56
2024/03/25 12:51:13;;;;;;;1.00;0.70;;;;;;;;;;5091172;28;20098;-56
2024/03/25 12:53:39;;;;;;;0.60;0.40;;;;;;;;;;5087991;28;20392;-58
2024/03/25 12:56:05;;;;;;;1.13;0.38;;;;;;;;;;5086189;28;20024;-57
2024/03/25 12:58:31;;;;;;;0.10;0.10;;;;;;;;;;5082680;28;20031;-57
2024/03/25 13:00:57;;;;;;;1.13;0.30;;;;;;;;;;5088594;28;20024;-58
2024/03/25 13:03:23;;;;;;;1.65;0.50;;;;;;;;;;5085296;28;20099;-57
2024/03/25 13:05:49;;;;;;;1.30;0.20;;;;;;;;;;5080934;28;20096;-57
2024/03/25 13:08:15;;;;;;;0.75;0.20;;;;;;;;;;5087439;28;20441;-59
2024/03/25 13:10:41;;;;;;;2.50;0.47;;;;;;;;;;5092631;28;20395;-59
2024/03/25 13:13:07;;;;;;;0.30;0.20;;;;;;;;;;5085051;28;20051;-58
2024/03/25 13:15:33;;;;;;;0.40;0.22;;;;;;;;;;5086617;28;20036;-59
2024/03/25 13:17:59;;;;;;;0.65;0.40;;;;;;;;;;5092494;28;20392;-55
2024/03/25 13:20:25;;;;;;;0.35;0.20;;;;;;;;;;5088126;28;20024;-54
2024/03/25 13:22:55;;;;;;;1.25;0.40;;;;;;;;;;5084739;28;20445;-56
2024/03/25 13:25:21;;;;;;;0.57;0.28;;;;;;;;;;5082309;28;20450;-54
2024/03/25 13:27:47;;;;;;;1.05;0.32;;;;;;;;;;5081891;28;20024;-53
2024/03/25 13:30:13;;;;;;;4.53;0.77;;;;;;;;;;5089462;28;20491;-52
2024/03/25 13:32:39;;;;;;;1.67;0.65;;;;;;;;;;5091714;28;20420;-53
2024/03/25 13:35:06;;;;;;;3.10;0.70;;;;;;;;;;5082903;28;20123;-55
2024/03/25 13:37:32;;;;;;;2.33;0.55;;;;;;;;;;5090541;28;20502;-54
2024/03/25 13:39:58;;;;;;;3.90;0.60;;;;;;;;;;5089849;28;20032;-56
2024/03/25 13:42:24;;;;;;;3.42;0.77;;;;;;;;;;5088540;28;20490;-55
2024/03/25 13:44:50;;;;;;;1.23;0.50;;;;;;;;;;5095361;28;20024;-55
2024/03/25 13:47:16;;;;;;;1.20;0.43;;;;;;;;;;5087091;28;20032;-55
2024/03/25 13:49:42;;;;;;;2.10;0.43;;;;;;;;;;5089540;28;20532;-56
2024/03/25 13:52:08;;;;;;;1.08;0.40;;;;;;;;;;5083123;28;20476;-55
2024/03/25 13:54:33;;;;;;;0.80;0.50;;;;;;;;;;5091802;28;20040;-55
2024/03/25 13:56:59;;;;;;;1.48;0.50;;;;;;;;;;5090344;28;20040;-53
2024/03/25 13:59:26;;;;;;;0.45;0.30;;;;;;;;;;5089867;28;20028;-54
2024/03/25 14:01:53;;;;;;;2.83;0.40;;;;;;;;;;5090211;28;20024;-54
2024/03/25 14:04:19;;;;;;;3.25;0.95;;;;;;;;;;5081458;28;20429;-54
2024/03/25 14:06:45;;;;;;;1.65;0.70;;;;;;;;;;5079742;28;20032;-55
2024/03/25 14:09:23;;;;;;;1.40;0.82;;;;;;;;;;5091829;28;20032;-51
2024/03/25 14:11:50;;;;;;;1.40;0.47;;;;;;;;;;5087600;28;20032;-51
2024/03/25 14:14:16;;;;;;;3.58;0.85;;;;;;;;;;5091110;28;20028;-52
2024/03/25 14:16:42;;;;;;;0.90;0.50;;;;;;;;;;5085014;28;20027;-54
2024/03/25 14:19:08;;;;;;;3.10;0.90;;;;;;;;;;5091034;28;20103;-57
2024/03/25 14:21:34;;;;;;;2.92;0.90;;;;;;;;;;5090119;28;20083;-59
2024/03/25 14:24:00;;;;;;;1.50;0.65;;;;;;;;;;5091133;28;20047;-57
2024/03/25 14:26:26;;;;;;;1.02;0.65;;;;;;;;;;5091070;28;20032;-57
2024/03/25 14:28:52;;;;;;;2.50;0.70;;;;;;;;;;5091779;28;20024;-58
2024/03/25 14:31:18;;;;;;;2.78;0.63;;;;;;;;;;5090998;28;20047;-59
2024/03/25 14:33:44;;;;;;;1.73;0.60;;;;;;;;;;5090269;28;20036;-58
2024/03/25 14:36:10;;;;;;;1.52;0.68;;;;;;;;;;5086091;28;20028;-58
2024/03/25 14:38:37;;;;;;;3.95;0.70;;;;;;;;;;5087407;28;20043;-59
2024/03/25 14:41:03;;;;;;;3.05;0.40;;;;;;;;;;5091197;28;20039;-59
2024/03/25 14:43:29;;;;;;;4.20;0.93;;;;;;;;;;5090424;28;20503;-56
2024/03/25 14:45:55;;;;;;;1.20;0.52;;;;;;;;;;5090116;28;20031;-59
2024/03/25 14:48:21;;;;;;;2.83;1.00;;;;;;;;;;5090463;28;20020;-58